sensor_id;sensor_type;location;lat;lon;timestamp;P1;durP1;ratioP1;P2;durP2;ratioP2
79052;SDS011;68451;49.510;6.026;2023-04-15T00:01:26;3.67;;;1.60;;
79052;SDS011;68451;49.510;6.026;2023-04-15T00:03:52;2.90;;;2.30;;
79052;SDS011;68451;49.510;6.026;2023-04-15T00:06:18;4.53;;;2.23;;
79052;SDS011;68451;49.510;6.026;2023-04-15T00:08:45;3.77;;;2.00;;
79052;SDS011;68451;49.510;6.026;2023-04-15T00:11:11;2.20;;;1.93;;
79052;SDS011;68451;49.510;6.026;2023-04-15T00:13:37;4.57;;;2.20;;
79052;SDS011;68451;49.510;6.026;2023-04-15T00:16:04;2.80;;;1.80;;
79052;SDS011;68451;49.510;6.026;2023-04-15T00:18:30;4.33;;;2.03;;
79052;SDS011;68451;49.510;6.026;2023-04-15T00:20:56;3.27;;;2.20;;
79052;SDS011;68451;49.510;6.026;2023-04-15T00:23:23;3.60;;;2.30;;
79052;SDS011;68451;49.510;6.026;2023-04-15T00:25:48;3.83;;;2.53;;
79052;SDS011;68451;49.510;6.026;2023-04-15T00:28:15;2.87;;;2.30;;
79052;SDS011;68451;49.510;6.026;2023-04-15T00:30:41;4.60;;;2.30;;
79052;SDS011;68451;49.510;6.026;2023-04-15T00:33:07;5.93;;;3.50;;
79052;SDS011;68451;49.510;6.026;2023-04-15T00:35:32;7.10;;;3.70;;
79052;SDS011;68451;49.510;6.026;2023-04-15T00:37:58;6.67;;;3.67;;
79052;SDS011;68451;49.510;6.026;2023-04-15T00:40:23;4.30;;;3.47;;
79052;SDS011;68451;49.510;6.026;2023-04-15T00:42:50;5.73;;;3.43;;
79052;SDS011;68451;49.510;6.026;2023-04-15T00:45:16;4.20;;;3.30;;
79052;SDS011;68451;49.510;6.026;2023-04-15T00:47:42;3.93;;;3.50;;
79052;SDS011;68451;49.510;6.026;2023-04-15T00:50:08;4.63;;;3.50;;
79052;SDS011;68451;49.510;6.026;2023-04-15T00:52:35;4.97;;;3.20;;
79052;SDS011;68451;49.510;6.026;2023-04-15T00:55:01;4.03;;;2.97;;
79052;SDS011;68451;49.510;6.026;2023-04-15T00:57:28;4.60;;;3.37;;
79052;SDS011;68451;49.510;6.026;2023-04-15T00:59:54;4.97;;;3.93;;
79052;SDS011;68451;49.510;6.026;2023-04-15T01:02:21;9.17;;;5.27;;
79052;SDS011;68451;49.510;6.026;2023-04-15T01:04:47;7.37;;;3.50;;
79052;SDS011;68451;49.510;6.026;2023-04-15T01:07:13;5.30;;;3.43;;
79052;SDS011;68451;49.510;6.026;2023-04-15T01:09:39;5.10;;;3.23;;
79052;SDS011;68451;49.510;6.026;2023-04-15T01:12:05;6.33;;;4.17;;
79052;SDS011;68451;49.510;6.026;2023-04-15T01:14:32;5.27;;;3.90;;
79052;SDS011;68451;49.510;6.026;2023-04-15T01:16:58;5.07;;;3.00;;
79052;SDS011;68451;49.510;6.026;2023-04-15T01:19:24;7.73;;;2.83;;
79052;SDS011;68451;49.510;6.026;2023-04-15T01:21:50;5.53;;;3.20;;
79052;SDS011;68451;49.510;6.026;2023-04-15T01:24:16;5.90;;;2.80;;
79052;SDS011;68451;49.510;6.026;2023-04-15T01:26:43;5.87;;;2.53;;
79052;SDS011;68451;49.510;6.026;2023-04-15T01:29:09;9.93;;;3.33;;
79052;SDS011;68451;49.510;6.026;2023-04-15T01:31:35;4.07;;;2.80;;
79052;SDS011;68451;49.510;6.026;2023-04-15T01:34:01;4.80;;;2.37;;
79052;SDS011;68451;49.510;6.026;2023-04-15T01:36:27;5.53;;;2.50;;
79052;SDS011;68451;49.510;6.026;2023-04-15T01:38:53;4.80;;;2.73;;
79052;SDS011;68451;49.510;6.026;2023-04-15T01:41:26;4.43;;;2.70;;
79052;SDS011;68451;49.510;6.026;2023-04-15T01:43:52;5.00;;;3.10;;
79052;SDS011;68451;49.510;6.026;2023-04-15T01:46:18;3.93;;;2.27;;
79052;SDS011;68451;49.510;6.026;2023-04-15T01:48:44;3.30;;;2.27;;
79052;SDS011;68451;49.510;6.026;2023-04-15T01:51:10;6.03;;;2.30;;
79052;SDS011;68451;49.510;6.026;2023-04-15T01:53:36;4.50;;;2.80;;
79052;SDS011;68451;49.510;6.026;2023-04-15T01:56:01;4.40;;;3.33;;
79052;SDS011;68451;49.510;6.026;2023-04-15T01:58:27;4.27;;;3.10;;
79052;SDS011;68451;49.510;6.026;2023-04-15T02:00:52;5.57;;;4.00;;
79052;SDS011;68451;49.510;6.026;2023-04-15T02:03:18;10.37;;;3.57;;
79052;SDS011;68451;49.510;6.026;2023-04-15T02:05:43;3.73;;;2.70;;
79052;SDS011;68451;49.510;6.026;2023-04-15T02:08:09;4.03;;;2.70;;
79052;SDS011;68451;49.510;6.026;2023-04-15T02:10:35;4.03;;;3.07;;
79052;SDS011;68451;49.510;6.026;2023-04-15T02:13:00;5.50;;;3.10;;
79052;SDS011;68451;49.510;6.026;2023-04-15T02:15:26;7.80;;;3.40;;
79052;SDS011;68451;49.510;6.026;2023-04-15T02:17:52;4.43;;;3.40;;
79052;SDS011;68451;49.510;6.026;2023-04-15T02:20:19;3.63;;;3.33;;
79052;SDS011;68451;49.510;6.026;2023-04-15T02:22:45;4.87;;;3.90;;
79052;SDS011;68451;49.510;6.026;2023-04-15T02:25:12;4.60;;;3.40;;
79052;SDS011;68451;49.510;6.026;2023-04-15T02:27:38;5.47;;;3.53;;
79052;SDS011;68451;49.510;6.026;2023-04-15T02:30:04;4.27;;;3.00;;
79052;SDS011;68451;49.510;6.026;2023-04-15T02:32:31;5.37;;;3.47;;
79052;SDS011;68451;49.510;6.026;2023-04-15T02:35:04;5.10;;;3.20;;
79052;SDS011;68451;49.510;6.026;2023-04-15T02:37:31;5.47;;;3.30;;
79052;SDS011;68451;49.510;6.026;2023-04-15T02:39:56;4.73;;;2.70;;
79052;SDS011;68451;49.510;6.026;2023-04-15T02:42:22;4.83;;;3.03;;
79052;SDS011;68451;49.510;6.026;2023-04-15T02:44:51;4.30;;;2.67;;
79052;SDS011;68451;49.510;6.026;2023-04-15T02:47:18;6.13;;;3.03;;
79052;SDS011;68451;49.510;6.026;2023-04-15T02:49:43;6.43;;;3.63;;
79052;SDS011;68451;49.510;6.026;2023-04-15T02:52:09;5.40;;;3.67;;
79052;SDS011;68451;49.510;6.026;2023-04-15T02:54:34;6.07;;;3.30;;
79052;SDS011;68451;49.510;6.026;2023-04-15T02:57:00;3.60;;;2.80;;
79052;SDS011;68451;49.510;6.026;2023-04-15T02:59:26;6.37;;;4.67;;
79052;SDS011;68451;49.510;6.026;2023-04-15T03:01:51;7.60;;;4.63;;
79052;SDS011;68451;49.510;6.026;2023-04-15T03:04:16;6.07;;;4.10;;
79052;SDS011;68451;49.510;6.026;2023-04-15T03:06:42;9.23;;;4.23;;
79052;SDS011;68451;49.510;6.026;2023-04-15T03:09:07;3.83;;;3.20;;
79052;SDS011;68451;49.510;6.026;2023-04-15T03:11:33;5.43;;;2.83;;
79052;SDS011;68451;49.510;6.026;2023-04-15T03:14:01;5.97;;;3.20;;
79052;SDS011;68451;49.510;6.026;2023-04-15T03:16:26;4.23;;;3.43;;
79052;SDS011;68451;49.510;6.026;2023-04-15T03:18:52;4.53;;;2.90;;
79052;SDS011;68451;49.510;6.026;2023-04-15T03:21:17;4.63;;;3.17;;
79052;SDS011;68451;49.510;6.026;2023-04-15T03:23:44;4.87;;;2.90;;
79052;SDS011;68451;49.510;6.026;2023-04-15T03:26:10;4.53;;;3.77;;
79052;SDS011;68451;49.510;6.026;2023-04-15T03:28:50;4.50;;;3.73;;
79052;SDS011;68451;49.510;6.026;2023-04-15T03:31:15;5.33;;;3.10;;
79052;SDS011;68451;49.510;6.026;2023-04-15T03:33:41;4.17;;;3.73;;
79052;SDS011;68451;49.510;6.026;2023-04-15T03:36:06;4.87;;;3.30;;
79052;SDS011;68451;49.510;6.026;2023-04-15T03:38:32;4.77;;;2.67;;
79052;SDS011;68451;49.510;6.026;2023-04-15T03:40:57;4.97;;;3.07;;
79052;SDS011;68451;49.510;6.026;2023-04-15T03:43:23;4.07;;;2.83;;
79052;SDS011;68451;49.510;6.026;2023-04-15T03:45:48;5.13;;;2.80;;
79052;SDS011;68451;49.510;6.026;2023-04-15T03:48:14;4.53;;;2.50;;
79052;SDS011;68451;49.510;6.026;2023-04-15T03:50:39;5.27;;;3.07;;
79052;SDS011;68451;49.510;6.026;2023-04-15T03:53:05;3.53;;;2.67;;
79052;SDS011;68451;49.510;6.026;2023-04-15T03:55:31;4.27;;;2.70;;
79052;SDS011;68451;49.510;6.026;2023-04-15T03:57:56;4.23;;;2.60;;
79052;SDS011;68451;49.510;6.026;2023-04-15T04:00:22;6.03;;;3.20;;
79052;SDS011;68451;49.510;6.026;2023-04-15T04:02:47;6.30;;;2.87;;
79052;SDS011;68451;49.510;6.026;2023-04-15T04:05:13;3.80;;;2.70;;
79052;SDS011;68451;49.510;6.026;2023-04-15T04:07:38;5.47;;;2.67;;
79052;SDS011;68451;49.510;6.026;2023-04-15T04:10:04;4.93;;;2.73;;
79052;SDS011;68451;49.510;6.026;2023-04-15T04:12:30;5.23;;;2.80;;
79052;SDS011;68451;49.510;6.026;2023-04-15T04:14:56;6.73;;;2.67;;
79052;SDS011;68451;49.510;6.026;2023-04-15T04:17:21;5.40;;;3.33;;
79052;SDS011;68451;49.510;6.026;2023-04-15T04:19:47;6.37;;;2.83;;
79052;SDS011;68451;49.510;6.026;2023-04-15T04:22:12;5.50;;;2.50;;
79052;SDS011;68451;49.510;6.026;2023-04-15T04:24:38;4.30;;;3.07;;
79052;SDS011;68451;49.510;6.026;2023-04-15T04:27:03;3.37;;;2.43;;
79052;SDS011;68451;49.510;6.026;2023-04-15T04:29:29;4.60;;;2.87;;
79052;SDS011;68451;49.510;6.026;2023-04-15T04:31:55;3.53;;;2.60;;
79052;SDS011;68451;49.510;6.026;2023-04-15T04:34:20;3.83;;;1.90;;
79052;SDS011;68451;49.510;6.026;2023-04-15T04:36:46;3.63;;;2.27;;
79052;SDS011;68451;49.510;6.026;2023-04-15T04:39:11;3.43;;;2.83;;
79052;SDS011;68451;49.510;6.026;2023-04-15T04:41:39;4.47;;;2.63;;
79052;SDS011;68451;49.510;6.026;2023-04-15T04:44:05;4.27;;;2.57;;
79052;SDS011;68451;49.510;6.026;2023-04-15T04:46:31;6.17;;;2.80;;
79052;SDS011;68451;49.510;6.026;2023-04-15T04:48:56;3.30;;;2.43;;
79052;SDS011;68451;49.510;6.026;2023-04-15T04:51:22;6.17;;;2.43;;
79052;SDS011;68451;49.510;6.026;2023-04-15T04:53:47;4.13;;;2.53;;
79052;SDS011;68451;49.510;6.026;2023-04-15T04:56:13;13.40;;;3.17;;
79052;SDS011;68451;49.510;6.026;2023-04-15T04:58:38;8.17;;;2.43;;
79052;SDS011;68451;49.510;6.026;2023-04-15T05:06:15;5.23;;;3.10;;
79052;SDS011;68451;49.510;6.026;2023-04-15T05:08:41;6.30;;;3.27;;
79052;SDS011;68451;49.510;6.026;2023-04-15T05:11:06;5.97;;;2.90;;
79052;SDS011;68451;49.510;6.026;2023-04-15T05:13:33;5.47;;;2.87;;
79052;SDS011;68451;49.510;6.026;2023-04-15T05:15:58;9.07;;;3.30;;
79052;SDS011;68451;49.510;6.026;2023-04-15T05:18:24;4.73;;;2.50;;
79052;SDS011;68451;49.510;6.026;2023-04-15T05:20:49;5.80;;;3.33;;
79052;SDS011;68451;49.510;6.026;2023-04-15T05:23:15;8.03;;;2.77;;
79052;SDS011;68451;49.510;6.026;2023-04-15T05:25:41;4.17;;;2.47;;
79052;SDS011;68451;49.510;6.026;2023-04-15T05:28:07;5.53;;;2.47;;
79052;SDS011;68451;49.510;6.026;2023-04-15T05:30:32;4.83;;;2.33;;
79052;SDS011;68451;49.510;6.026;2023-04-15T05:32:58;4.73;;;2.30;;
79052;SDS011;68451;49.510;6.026;2023-04-15T05:35:23;3.57;;;2.10;;
79052;SDS011;68451;49.510;6.026;2023-04-15T05:37:49;4.70;;;2.80;;
79052;SDS011;68451;49.510;6.026;2023-04-15T05:40:15;6.27;;;2.80;;
79052;SDS011;68451;49.510;6.026;2023-04-15T05:42:40;4.93;;;2.37;;
79052;SDS011;68451;49.510;6.026;2023-04-15T05:45:06;11.13;;;2.87;;
79052;SDS011;68451;49.510;6.026;2023-04-15T05:47:34;5.20;;;2.20;;
79052;SDS011;68451;49.510;6.026;2023-04-15T05:50:00;5.07;;;2.20;;
79052;SDS011;68451;49.510;6.026;2023-04-15T05:52:26;3.03;;;2.13;;
79052;SDS011;68451;49.510;6.026;2023-04-15T05:54:51;4.97;;;3.10;;
79052;SDS011;68451;49.510;6.026;2023-04-15T05:57:17;6.17;;;2.33;;
79052;SDS011;68451;49.510;6.026;2023-04-15T05:59:42;3.07;;;1.97;;
79052;SDS011;68451;49.510;6.026;2023-04-15T06:02:08;5.33;;;2.27;;
79052;SDS011;68451;49.510;6.026;2023-04-15T06:04:34;4.27;;;2.27;;
79052;SDS011;68451;49.510;6.026;2023-04-15T06:07:01;6.30;;;2.70;;
79052;SDS011;68451;49.510;6.026;2023-04-15T06:09:26;5.33;;;2.37;;
79052;SDS011;68451;49.510;6.026;2023-04-15T06:11:53;4.93;;;2.60;;
79052;SDS011;68451;49.510;6.026;2023-04-15T06:14:18;4.53;;;1.97;;
79052;SDS011;68451;49.510;6.026;2023-04-15T06:16:44;2.63;;;1.97;;
79052;SDS011;68451;49.510;6.026;2023-04-15T06:19:09;4.53;;;2.17;;
79052;SDS011;68451;49.510;6.026;2023-04-15T06:21:36;3.80;;;2.20;;
79052;SDS011;68451;49.510;6.026;2023-04-15T06:24:02;4.07;;;2.37;;
79052;SDS011;68451;49.510;6.026;2023-04-15T06:26:27;7.60;;;2.73;;
79052;SDS011;68451;49.510;6.026;2023-04-15T06:28:53;4.57;;;2.17;;
79052;SDS011;68451;49.510;6.026;2023-04-15T06:31:19;6.80;;;2.37;;
79052;SDS011;68451;49.510;6.026;2023-04-15T06:33:45;4.10;;;2.00;;
79052;SDS011;68451;49.510;6.026;2023-04-15T06:36:10;3.73;;;1.77;;
79052;SDS011;68451;49.510;6.026;2023-04-15T06:38:36;4.00;;;1.93;;
79052;SDS011;68451;49.510;6.026;2023-04-15T06:41:02;3.80;;;2.50;;
79052;SDS011;68451;49.510;6.026;2023-04-15T06:43:28;7.27;;;4.63;;
79052;SDS011;68451;49.510;6.026;2023-04-15T06:45:54;3.90;;;2.43;;
79052;SDS011;68451;49.510;6.026;2023-04-15T06:48:20;3.20;;;2.23;;
79052;SDS011;68451;49.510;6.026;2023-04-15T06:50:46;3.73;;;2.00;;
79052;SDS011;68451;49.510;6.026;2023-04-15T06:53:12;3.80;;;1.63;;
79052;SDS011;68451;49.510;6.026;2023-04-15T06:55:38;6.10;;;2.03;;
79052;SDS011;68451;49.510;6.026;2023-04-15T06:58:04;4.23;;;2.37;;
79052;SDS011;68451;49.510;6.026;2023-04-15T07:00:30;3.43;;;2.37;;
79052;SDS011;68451;49.510;6.026;2023-04-15T07:02:57;6.30;;;1.93;;
79052;SDS011;68451;49.510;6.026;2023-04-15T07:05:23;4.73;;;2.30;;
79052;SDS011;68451;49.510;6.026;2023-04-15T07:07:49;4.07;;;2.13;;
79052;SDS011;68451;49.510;6.026;2023-04-15T07:10:15;4.87;;;1.73;;
79052;SDS011;68451;49.510;6.026;2023-04-15T07:12:41;3.43;;;1.90;;
79052;SDS011;68451;49.510;6.026;2023-04-15T07:15:06;4.57;;;2.60;;
79052;SDS011;68451;49.510;6.026;2023-04-15T07:17:32;9.97;;;3.47;;
79052;SDS011;68451;49.510;6.026;2023-04-15T07:19:58;6.20;;;3.43;;
79052;SDS011;68451;49.510;6.026;2023-04-15T07:22:23;3.90;;;2.70;;
79052;SDS011;68451;49.510;6.026;2023-04-15T07:24:50;5.23;;;2.87;;
79052;SDS011;68451;49.510;6.026;2023-04-15T07:27:15;6.97;;;3.00;;
79052;SDS011;68451;49.510;6.026;2023-04-15T07:29:41;6.63;;;2.77;;
79052;SDS011;68451;49.510;6.026;2023-04-15T07:32:07;4.80;;;2.63;;
79052;SDS011;68451;49.510;6.026;2023-04-15T07:34:34;6.67;;;2.50;;
79052;SDS011;68451;49.510;6.026;2023-04-15T07:37:00;3.77;;;2.30;;
79052;SDS011;68451;49.510;6.026;2023-04-15T07:39:25;6.73;;;2.50;;
79052;SDS011;68451;49.510;6.026;2023-04-15T07:41:51;4.53;;;3.10;;
79052;SDS011;68451;49.510;6.026;2023-04-15T07:44:17;3.73;;;2.00;;
79052;SDS011;68451;49.510;6.026;2023-04-15T07:46:42;4.10;;;2.03;;
79052;SDS011;68451;49.510;6.026;2023-04-15T07:49:08;3.90;;;1.90;;
79052;SDS011;68451;49.510;6.026;2023-04-15T07:51:33;4.73;;;2.00;;
79052;SDS011;68451;49.510;6.026;2023-04-15T07:53:59;5.60;;;2.73;;
79052;SDS011;68451;49.510;6.026;2023-04-15T07:56:24;6.97;;;2.57;;
79052;SDS011;68451;49.510;6.026;2023-04-15T07:58:50;3.23;;;1.87;;
79052;SDS011;68451;49.510;6.026;2023-04-15T08:01:16;4.20;;;2.10;;
79052;SDS011;68451;49.510;6.026;2023-04-15T08:03:41;5.23;;;1.87;;
79052;SDS011;68451;49.510;6.026;2023-04-15T08:06:07;7.30;;;2.00;;
79052;SDS011;68451;49.510;6.026;2023-04-15T08:08:32;4.60;;;2.53;;
79052;SDS011;68451;49.510;6.026;2023-04-15T08:10:58;4.77;;;2.37;;
79052;SDS011;68451;49.510;6.026;2023-04-15T08:13:24;3.77;;;2.40;;
79052;SDS011;68451;49.510;6.026;2023-04-15T08:15:52;5.67;;;2.20;;
79052;SDS011;68451;49.510;6.026;2023-04-15T08:18:37;3.70;;;1.90;;
79052;SDS011;68451;49.510;6.026;2023-04-15T08:21:03;5.10;;;2.17;;
79052;SDS011;68451;49.510;6.026;2023-04-15T08:23:28;2.87;;;2.17;;
79052;SDS011;68451;49.510;6.026;2023-04-15T08:25:54;6.03;;;2.87;;
79052;SDS011;68451;49.510;6.026;2023-04-15T08:28:19;2.17;;;1.77;;
79052;SDS011;68451;49.510;6.026;2023-04-15T08:30:45;3.87;;;2.00;;
79052;SDS011;68451;49.510;6.026;2023-04-15T08:33:10;3.92;;;1.95;;
79052;SDS011;68451;49.510;6.026;2023-04-15T08:35:36;4.13;;;2.45;;
79052;SDS011;68451;49.510;6.026;2023-04-15T08:38:02;5.33;;;2.60;;
79052;SDS011;68451;49.510;6.026;2023-04-15T08:40:29;5.43;;;3.10;;
79052;SDS011;68451;49.510;6.026;2023-04-15T08:43:04;5.85;;;2.20;;
79052;SDS011;68451;49.510;6.026;2023-04-15T08:45:34;8.77;;;2.40;;
79052;SDS011;68451;49.510;6.026;2023-04-15T08:48:02;4.75;;;3.15;;
79052;SDS011;68451;49.510;6.026;2023-04-15T08:50:30;4.78;;;2.03;;
79052;SDS011;68451;49.510;6.026;2023-04-15T08:52:57;5.50;;;1.75;;
79052;SDS011;68451;49.510;6.026;2023-04-15T08:55:25;6.45;;;2.60;;
79052;SDS011;68451;49.510;6.026;2023-04-15T08:57:57;3.65;;;2.00;;
79052;SDS011;68451;49.510;6.026;2023-04-15T09:00:24;5.38;;;2.22;;
79052;SDS011;68451;49.510;6.026;2023-04-15T09:02:51;4.60;;;2.30;;
79052;SDS011;68451;49.510;6.026;2023-04-15T09:05:16;5.30;;;2.38;;
79052;SDS011;68451;49.510;6.026;2023-04-15T09:07:42;4.60;;;2.28;;
79052;SDS011;68451;49.510;6.026;2023-04-15T09:10:08;6.75;;;2.50;;
79052;SDS011;68451;49.510;6.026;2023-04-15T09:12:34;5.75;;;2.35;;
79052;SDS011;68451;49.510;6.026;2023-04-15T09:15:01;4.53;;;2.28;;
79052;SDS011;68451;49.510;6.026;2023-04-15T09:17:27;5.82;;;2.10;;
79052;SDS011;68451;49.510;6.026;2023-04-15T09:20:06;7.47;;;2.70;;
79052;SDS011;68451;49.510;6.026;2023-04-15T09:22:37;8.75;;;2.55;;
79052;SDS011;68451;49.510;6.026;2023-04-15T09:25:14;3.58;;;1.85;;
79052;SDS011;68451;49.510;6.026;2023-04-15T09:27:51;6.97;;;2.95;;
79052;SDS011;68451;49.510;6.026;2023-04-15T09:30:18;5.32;;;2.30;;
79052;SDS011;68451;49.510;6.026;2023-04-15T09:35:14;5.30;;;2.22;;
79052;SDS011;68451;49.510;6.026;2023-04-15T09:37:40;2.58;;;1.67;;
79052;SDS011;68451;49.510;6.026;2023-04-15T09:40:05;7.18;;;2.80;;
79052;SDS011;68451;49.510;6.026;2023-04-15T09:42:32;4.00;;;2.20;;
79052;SDS011;68451;49.510;6.026;2023-04-15T09:45:10;6.35;;;2.33;;
79052;SDS011;68451;49.510;6.026;2023-04-15T09:47:36;4.05;;;2.65;;
79052;SDS011;68451;49.510;6.026;2023-04-15T09:50:02;4.50;;;1.80;;
79052;SDS011;68451;49.510;6.026;2023-04-15T09:52:28;7.28;;;2.67;;
79052;SDS011;68451;49.510;6.026;2023-04-15T09:54:58;3.42;;;2.00;;
79052;SDS011;68451;49.510;6.026;2023-04-15T09:57:24;3.78;;;2.40;;
79052;SDS011;68451;49.510;6.026;2023-04-15T09:59:50;4.43;;;1.73;;
79052;SDS011;68451;49.510;6.026;2023-04-15T10:02:15;4.57;;;1.83;;
79052;SDS011;68451;49.510;6.026;2023-04-15T10:04:43;3.15;;;1.63;;
79052;SDS011;68451;49.510;6.026;2023-04-15T10:07:10;5.65;;;2.08;;
79052;SDS011;68451;49.510;6.026;2023-04-15T10:09:37;2.08;;;1.35;;
79052;SDS011;68451;49.510;6.026;2023-04-15T10:12:03;2.72;;;1.63;;
79052;SDS011;68451;49.510;6.026;2023-04-15T10:14:33;3.30;;;1.60;;
79052;SDS011;68451;49.510;6.026;2023-04-15T10:17:00;3.42;;;1.55;;
79052;SDS011;68451;49.510;6.026;2023-04-15T10:19:30;2.05;;;1.42;;
79052;SDS011;68451;49.510;6.026;2023-04-15T10:21:57;3.88;;;1.20;;
79052;SDS011;68451;49.510;6.026;2023-04-15T10:24:24;2.10;;;1.45;;
79052;SDS011;68451;49.510;6.026;2023-04-15T10:26:50;2.90;;;1.20;;
79052;SDS011;68451;49.510;6.026;2023-04-15T10:29:17;2.38;;;1.30;;
79052;SDS011;68451;49.510;6.026;2023-04-15T10:31:42;3.78;;;1.40;;
79052;SDS011;68451;49.510;6.026;2023-04-15T10:34:08;5.63;;;1.73;;
79052;SDS011;68451;49.510;6.026;2023-04-15T10:36:35;3.05;;;1.70;;
79052;SDS011;68451;49.510;6.026;2023-04-15T10:39:01;3.78;;;1.60;;
79052;SDS011;68451;49.510;6.026;2023-04-15T10:41:27;8.43;;;2.50;;
79052;SDS011;68451;49.510;6.026;2023-04-15T10:44:00;3.28;;;1.30;;
79052;SDS011;68451;49.510;6.026;2023-04-15T10:49:12;2.65;;;1.52;;
79052;SDS011;68451;49.510;6.026;2023-04-15T10:51:57;6.00;;;1.52;;
79052;SDS011;68451;49.510;6.026;2023-04-15T11:00:01;3.72;;;1.42;;
79052;SDS011;68451;49.510;6.026;2023-04-15T11:02:45;3.45;;;1.58;;
79052;SDS011;68451;49.510;6.026;2023-04-15T11:05:16;2.55;;;1.00;;
79052;SDS011;68451;49.510;6.026;2023-04-15T11:07:47;1.55;;;1.10;;
79052;SDS011;68451;49.510;6.026;2023-04-15T11:13:20;4.20;;;1.30;;
79052;SDS011;68451;49.510;6.026;2023-04-15T11:15:47;1.98;;;1.30;;
79052;SDS011;68451;49.510;6.026;2023-04-15T11:18:20;2.97;;;1.45;;
79052;SDS011;68451;49.510;6.026;2023-04-15T11:20:48;3.38;;;1.40;;
79052;SDS011;68451;49.510;6.026;2023-04-15T11:23:31;3.42;;;1.70;;
79052;SDS011;68451;49.510;6.026;2023-04-15T11:25:59;2.42;;;1.23;;
79052;SDS011;68451;49.510;6.026;2023-04-15T11:28:27;3.95;;;1.60;;
79052;SDS011;68451;49.510;6.026;2023-04-15T11:30:54;5.07;;;1.35;;
79052;SDS011;68451;49.510;6.026;2023-04-15T11:33:20;4.40;;;1.67;;
79052;SDS011;68451;49.510;6.026;2023-04-15T11:35:47;2.60;;;1.20;;
79052;SDS011;68451;49.510;6.026;2023-04-15T11:38:13;5.32;;;1.42;;
79052;SDS011;68451;49.510;6.026;2023-04-15T11:40:40;3.38;;;1.55;;
79052;SDS011;68451;49.510;6.026;2023-04-15T11:43:10;3.65;;;1.40;;
79052;SDS011;68451;49.510;6.026;2023-04-15T11:48:29;3.15;;;1.23;;
79052;SDS011;68451;49.510;6.026;2023-04-15T11:50:58;4.60;;;1.58;;
79052;SDS011;68451;49.510;6.026;2023-04-15T11:53:37;2.88;;;1.70;;
79052;SDS011;68451;49.510;6.026;2023-04-15T11:56:06;3.85;;;1.77;;
79052;SDS011;68451;49.510;6.026;2023-04-15T11:58:34;3.78;;;1.42;;
79052;SDS011;68451;49.510;6.026;2023-04-15T12:01:04;3.05;;;1.65;;
79052;SDS011;68451;49.510;6.026;2023-04-15T12:03:40;2.38;;;1.50;;
79052;SDS011;68451;49.510;6.026;2023-04-15T12:06:15;4.00;;;1.85;;
79052;SDS011;68451;49.510;6.026;2023-04-15T12:11:43;3.78;;;1.58;;
79052;SDS011;68451;49.510;6.026;2023-04-15T12:14:23;5.32;;;1.33;;
79052;SDS011;68451;49.510;6.026;2023-04-15T12:16:51;2.83;;;1.45;;
79052;SDS011;68451;49.510;6.026;2023-04-15T12:19:22;3.28;;;1.17;;
79052;SDS011;68451;49.510;6.026;2023-04-15T12:21:50;2.72;;;1.13;;
79052;SDS011;68451;49.510;6.026;2023-04-15T12:24:19;2.83;;;1.40;;
79052;SDS011;68451;49.510;6.026;2023-04-15T12:26:47;1.63;;;0.93;;
79052;SDS011;68451;49.510;6.026;2023-04-15T12:29:15;3.03;;;1.67;;
79052;SDS011;68451;49.510;6.026;2023-04-15T12:31:51;5.30;;;1.80;;
79052;SDS011;68451;49.510;6.026;2023-04-15T12:36:57;4.68;;;1.70;;
79052;SDS011;68451;49.510;6.026;2023-04-15T12:39:24;3.08;;;1.80;;
79052;SDS011;68451;49.510;6.026;2023-04-15T12:41:51;3.92;;;1.58;;
79052;SDS011;68451;49.510;6.026;2023-04-15T12:44:17;3.67;;;1.67;;
79052;SDS011;68451;49.510;6.026;2023-04-15T12:46:44;4.95;;;1.70;;
79052;SDS011;68451;49.510;6.026;2023-04-15T12:49:10;2.92;;;1.40;;
79052;SDS011;68451;49.510;6.026;2023-04-15T12:51:36;2.75;;;1.40;;
79052;SDS011;68451;49.510;6.026;2023-04-15T12:54:01;4.32;;;2.08;;
79052;SDS011;68451;49.510;6.026;2023-04-15T12:56:27;2.97;;;1.58;;
79052;SDS011;68451;49.510;6.026;2023-04-15T12:58:52;3.58;;;1.70;;
79052;SDS011;68451;49.510;6.026;2023-04-15T13:01:18;3.38;;;1.67;;
79052;SDS011;68451;49.510;6.026;2023-04-15T13:03:44;2.90;;;1.73;;
79052;SDS011;68451;49.510;6.026;2023-04-15T13:06:10;3.05;;;2.15;;
79052;SDS011;68451;49.510;6.026;2023-04-15T13:08:36;2.65;;;1.50;;
79052;SDS011;68451;49.510;6.026;2023-04-15T13:11:02;3.42;;;1.85;;
79052;SDS011;68451;49.510;6.026;2023-04-15T13:13:27;4.95;;;1.67;;
79052;SDS011;68451;49.510;6.026;2023-04-15T13:15:56;4.95;;;3.15;;
79052;SDS011;68451;49.510;6.026;2023-04-15T13:18:22;2.78;;;1.70;;
79052;SDS011;68451;49.510;6.026;2023-04-15T13:20:47;3.45;;;2.58;;
79052;SDS011;68451;49.510;6.026;2023-04-15T13:23:14;4.45;;;1.88;;
79052;SDS011;68451;49.510;6.026;2023-04-15T13:25:39;6.18;;;1.90;;
79052;SDS011;68451;49.510;6.026;2023-04-15T13:28:05;3.83;;;1.95;;
79052;SDS011;68451;49.510;6.026;2023-04-15T13:30:30;3.08;;;2.28;;
79052;SDS011;68451;49.510;6.026;2023-04-15T13:32:56;2.45;;;1.92;;
79052;SDS011;68451;49.510;6.026;2023-04-15T13:35:22;4.28;;;1.67;;
79052;SDS011;68451;49.510;6.026;2023-04-15T13:37:47;5.57;;;1.80;;
79052;SDS011;68451;49.510;6.026;2023-04-15T13:40:13;3.88;;;1.77;;
79052;SDS011;68451;49.510;6.026;2023-04-15T13:42:39;2.63;;;1.90;;
79052;SDS011;68451;49.510;6.026;2023-04-15T13:45:06;5.53;;;2.10;;
79052;SDS011;68451;49.510;6.026;2023-04-15T13:47:32;4.38;;;2.05;;
79052;SDS011;68451;49.510;6.026;2023-04-15T13:49:58;3.53;;;2.53;;
79052;SDS011;68451;49.510;6.026;2023-04-15T13:52:24;2.30;;;1.70;;
79052;SDS011;68451;49.510;6.026;2023-04-15T13:54:49;2.25;;;1.73;;
79052;SDS011;68451;49.510;6.026;2023-04-15T13:57:15;5.60;;;1.77;;
79052;SDS011;68451;49.510;6.026;2023-04-15T13:59:41;5.72;;;2.00;;
79052;SDS011;68451;49.510;6.026;2023-04-15T14:02:08;4.88;;;3.03;;
79052;SDS011;68451;49.510;6.026;2023-04-15T14:04:33;3.70;;;2.42;;
79052;SDS011;68451;49.510;6.026;2023-04-15T14:06:59;4.05;;;2.08;;
79052;SDS011;68451;49.510;6.026;2023-04-15T14:09:25;3.88;;;2.20;;
79052;SDS011;68451;49.510;6.026;2023-04-15T14:11:50;3.00;;;2.28;;
79052;SDS011;68451;49.510;6.026;2023-04-15T14:14:16;3.28;;;2.45;;
79052;SDS011;68451;49.510;6.026;2023-04-15T14:16:42;4.22;;;2.47;;
79052;SDS011;68451;49.510;6.026;2023-04-15T14:19:07;3.17;;;2.88;;
79052;SDS011;68451;49.510;6.026;2023-04-15T14:21:33;3.05;;;2.50;;
79052;SDS011;68451;49.510;6.026;2023-04-15T14:23:58;5.88;;;2.33;;
79052;SDS011;68451;49.510;6.026;2023-04-15T14:26:24;3.38;;;2.05;;
79052;SDS011;68451;49.510;6.026;2023-04-15T14:28:50;4.53;;;2.30;;
79052;SDS011;68451;49.510;6.026;2023-04-15T14:31:15;3.88;;;2.25;;
79052;SDS011;68451;49.510;6.026;2023-04-15T14:33:41;4.47;;;2.22;;
79052;SDS011;68451;49.510;6.026;2023-04-15T14:36:07;4.45;;;1.90;;
79052;SDS011;68451;49.510;6.026;2023-04-15T14:38:33;2.60;;;2.00;;
79052;SDS011;68451;49.510;6.026;2023-04-15T14:41:04;2.70;;;1.38;;
79052;SDS011;68451;49.510;6.026;2023-04-15T14:43:30;2.65;;;1.98;;
79052;SDS011;68451;49.510;6.026;2023-04-15T14:45:55;3.83;;;1.75;;
79052;SDS011;68451;49.510;6.026;2023-04-15T14:48:21;2.03;;;1.52;;
79052;SDS011;68451;49.510;6.026;2023-04-15T14:50:46;2.45;;;1.85;;
79052;SDS011;68451;49.510;6.026;2023-04-15T14:53:12;2.45;;;1.45;;
79052;SDS011;68451;49.510;6.026;2023-04-15T14:55:38;3.17;;;2.25;;
79052;SDS011;68451;49.510;6.026;2023-04-15T14:58:03;1.90;;;1.50;;
79052;SDS011;68451;49.510;6.026;2023-04-15T15:00:29;2.40;;;1.77;;
79052;SDS011;68451;49.510;6.026;2023-04-15T15:02:55;3.58;;;2.30;;
79052;SDS011;68451;49.510;6.026;2023-04-15T15:05:20;2.88;;;1.80;;
79052;SDS011;68451;49.510;6.026;2023-04-15T15:07:46;2.75;;;1.73;;
79052;SDS011;68451;49.510;6.026;2023-04-15T15:10:11;6.97;;;2.33;;
79052;SDS011;68451;49.510;6.026;2023-04-15T15:12:37;2.58;;;2.08;;